Time;durP1;ratioP1;P1;durP2;ratioP2;P2;SDS_P1;SDS_P2;PMS_P1;PMS_P2;Temp;Humidity;BMP_temperature;BMP_pressure;BME280_temperature;BME280_humidity;BME280_pressure;Samples;Min_cycle;Max_cycle;Signal;HPM_P1;HPM_P2
2023/12/16 00:01:14;;;;;;;5.90;4.25;;;5.90;99.90;;;;;;5068424;28;20183;-72
2023/12/16 00:03:40;;;;;;;5.80;4.20;;;5.80;99.90;;;;;;5069878;28;20183;-72
2023/12/16 00:06:06;;;;;;;8.50;3.63;;;5.80;99.90;;;;;;5068444;28;20437;-72
2023/12/16 00:08:32;;;;;;;4.57;3.70;;;5.80;99.90;;;;;;5069385;28;20476;-72
2023/12/16 00:10:57;;;;;;;4.10;3.67;;;5.80;99.90;;;;;;5069894;28;20425;-72
2023/12/16 00:13:23;;;;;;;4.70;3.93;;;5.80;99.90;;;;;;5068555;28;20186;-72
2023/12/16 00:15:48;;;;;;;6.50;4.17;;;5.80;99.90;;;;;;5069784;28;20232;-72
2023/12/16 00:18:14;;;;;;;5.90;4.57;;;5.80;99.90;;;;;;5069801;28;20217;-71
2023/12/16 00:20:40;;;;;;;5.90;4.00;;;5.80;99.90;;;;;;5069841;28;20187;-72
2023/12/16 00:23:05;;;;;;;5.27;3.47;;;5.80;99.90;;;;;;5069680;28;20664;-73
2023/12/16 00:25:31;;;;;;;3.97;3.60;;;5.80;99.90;;;;;;5068295;28;20187;-72
2023/12/16 00:27:56;;;;;;;4.30;3.67;;;5.80;99.90;;;;;;5069530;28;20217;-72
2023/12/16 00:30:22;;;;;;;4.73;4.13;;;5.80;99.90;;;;;;5068502;28;20265;-72
2023/12/16 00:32:48;;;;;;;6.10;3.60;;;5.80;99.90;;;;;;5068360;28;20212;-72
2023/12/16 00:35:13;;;;;;;10.20;3.70;;;5.80;99.90;;;;;;5069558;28;20291;-73
2023/12/16 00:37:39;;;;;;;4.77;3.33;;;5.80;99.90;;;;;;5069528;28;20238;-73
2023/12/16 00:40:05;;;;;;;7.40;3.53;;;5.80;99.90;;;;;;5069533;28;20471;-72
2023/12/16 00:42:31;;;;;;;5.70;4.60;;;5.80;99.90;;;;;;5051082;28;20194;-72
2023/12/16 00:44:57;;;;;;;3.87;3.20;;;5.80;99.90;;;;;;5051353;28;20482;-72
2023/12/16 00:47:23;;;;;;;3.20;2.83;;;5.70;99.90;;;;;;5069064;28;20217;-72
2023/12/16 00:49:49;;;;;;;6.17;4.43;;;5.70;99.90;;;;;;5069775;28;20420;-72
2023/12/16 00:52:14;;;;;;;5.27;3.47;;;5.70;99.90;;;;;;5069579;28;20172;-72
2023/12/16 00:54:40;;;;;;;6.33;3.93;;;5.80;99.90;;;;;;5069165;28;20205;-72
2023/12/16 00:57:06;;;;;;;4.73;3.57;;;5.70;99.90;;;;;;5067701;28;20205;-72
2023/12/16 00:59:31;;;;;;;5.17;3.80;;;5.70;99.90;;;;;;5069080;28;20182;-73
2023/12/16 01:01:57;;;;;;;4.13;3.50;;;5.70;99.90;;;;;;5067874;28;20186;-70
2023/12/16 01:04:22;;;;;;;4.17;3.67;;;5.70;99.90;;;;;;5069008;28;20185;-72
2023/12/16 01:06:48;;;;;;;5.60;3.30;;;5.70;99.90;;;;;;5067297;28;20305;-72
2023/12/16 01:09:14;;;;;;;4.93;3.00;;;5.60;99.90;;;;;;5067297;28;20213;-72
2023/12/16 01:11:43;;;;;;;6.60;2.83;;;5.60;99.90;;;;;;5074319;28;20409;-72
2023/12/16 01:14:09;;;;;;;4.07;3.30;;;5.60;99.90;;;;;;5075600;28;20261;-72
2023/12/16 01:16:34;;;;;;;7.13;3.20;;;5.60;99.90;;;;;;5075262;28;20499;-72
2023/12/16 01:19:00;;;;;;;5.37;3.40;;;5.60;99.90;;;;;;5073806;28;20661;-71
2023/12/16 01:21:25;;;;;;;4.40;3.70;;;5.60;99.90;;;;;;5056679;28;20998;-70
2023/12/16 01:23:51;;;;;;;8.43;3.13;;;5.70;99.90;;;;;;5075275;28;20185;-71
2023/12/16 01:26:17;;;;;;;6.03;3.30;;;5.70;99.90;;;;;;5075116;28;20207;-71
2023/12/16 01:28:43;;;;;;;4.93;3.67;;;5.70;99.90;;;;;;5075138;28;20183;-72
2023/12/16 01:31:09;;;;;;;7.23;3.93;;;5.70;99.90;;;;;;5073787;28;20190;-71
2023/12/16 01:33:34;;;;;;;3.93;3.37;;;5.60;99.90;;;;;;5073787;28;20474;-72
2023/12/16 01:36:00;;;;;;;6.80;4.10;;;5.60;99.90;;;;;;5073809;28;20193;-72
2023/12/16 01:38:26;;;;;;;5.20;3.57;;;5.70;99.90;;;;;;5075148;28;20211;-70
2023/12/16 01:40:51;;;;;;;4.50;3.23;;;5.60;99.90;;;;;;5074950;28;20187;-72
2023/12/16 01:43:17;;;;;;;3.77;2.73;;;5.60;99.90;;;;;;5074974;28;20187;-72
2023/12/16 01:45:43;;;;;;;4.03;3.63;;;5.60;99.90;;;;;;5073388;28;20629;-72
2023/12/16 01:48:10;;;;;;;3.70;3.13;;;5.50;99.90;;;;;;5074831;28;21006;-72
2023/12/16 01:50:36;;;;;;;4.20;3.37;;;5.50;99.90;;;;;;5074829;28;20197;-72
2023/12/16 01:53:04;;;;;;;4.43;3.33;;;5.50;99.90;;;;;;5075222;28;20453;-72
2023/12/16 01:55:31;;;;;;;6.80;3.47;;;5.60;99.90;;;;;;5074550;28;20928;-72
2023/12/16 01:57:57;;;;;;;3.83;3.10;;;5.60;99.90;;;;;;5074983;28;20441;-71
2023/12/16 02:00:23;;;;;;;4.93;3.20;;;5.60;99.90;;;;;;5074758;28;20489;-71
2023/12/16 02:02:49;;;;;;;4.20;3.23;;;5.60;99.90;;;;;;5075119;28;20420;-72
2023/12/16 02:05:15;;;;;;;3.20;2.90;;;5.60;99.90;;;;;;5075346;28;20421;-72
2023/12/16 02:07:42;;;;;;;3.90;3.30;;;5.60;99.90;;;;;;5075315;28;20476;-72
2023/12/16 02:10:09;;;;;;;4.00;3.30;;;5.60;99.90;;;;;;5075353;28;20471;-72
2023/12/16 02:12:35;;;;;;;3.37;2.80;;;5.60;99.90;;;;;;5073988;28;20429;-72
2023/12/16 02:15:01;;;;;;;8.13;3.17;;;5.60;99.90;;;;;;5075318;28;20802;-72
2023/12/16 02:17:27;;;;;;;3.90;3.50;;;5.60;99.90;;;;;;5075083;28;20631;-72
2023/12/16 02:19:55;;;;;;;3.13;2.83;;;5.60;99.90;;;;;;5075139;28;20436;-71
2023/12/16 02:22:21;;;;;;;4.20;3.23;;;5.60;99.90;;;;;;5071204;28;20724;-71
2023/12/16 02:24:48;;;;;;;3.73;2.97;;;5.60;99.90;;;;;;5072043;28;20426;-72
2023/12/16 02:27:13;;;;;;;4.50;3.60;;;5.60;99.90;;;;;;5071825;28;20560;-71
2023/12/16 02:29:39;;;;;;;5.37;4.13;;;5.60;99.90;;;;;;5054111;28;20895;-71
2023/12/16 02:32:05;;;;;;;8.17;3.50;;;5.60;99.90;;;;;;5071882;28;20183;-71
2023/12/16 02:34:31;;;;;;;6.23;3.37;;;5.60;99.90;;;;;;5071735;28;20616;-70
2023/12/16 02:36:57;;;;;;;4.50;3.37;;;5.60;99.90;;;;;;5070512;28;20460;-72
2023/12/16 02:39:22;;;;;;;3.90;3.20;;;5.60;99.90;;;;;;5071987;28;20195;-72
2023/12/16 02:41:48;;;;;;;4.57;3.93;;;5.50;99.90;;;;;;5071964;28;20190;-72
2023/12/16 02:44:14;;;;;;;5.03;3.70;;;5.50;99.90;;;;;;5070788;28;20187;-72
2023/12/16 02:46:39;;;;;;;4.27;3.80;;;5.60;99.90;;;;;;5072141;28;20223;-72
2023/12/16 02:49:05;;;;;;;3.80;3.50;;;5.60;99.90;;;;;;5070485;28;20194;-71
2023/12/16 02:51:30;;;;;;;6.70;4.50;;;5.60;99.90;;;;;;5071983;28;20563;-71
2023/12/16 02:53:56;;;;;;;4.93;4.30;;;5.60;99.90;;;;;;5069791;28;20589;-72
2023/12/16 02:56:22;;;;;;;5.93;4.00;;;5.60;99.90;;;;;;5070072;28;20206;-71
2023/12/16 02:58:48;;;;;;;5.93;4.03;;;5.60;99.90;;;;;;5071348;28;20187;-72
2023/12/16 03:01:15;;;;;;;7.43;4.00;;;5.60;99.90;;;;;;5070127;28;20186;-73
2023/12/16 03:03:40;;;;;;;7.57;3.80;;;5.60;99.90;;;;;;5070015;28;20495;-71
2023/12/16 03:06:07;;;;;;;4.33;3.70;;;5.60;99.90;;;;;;5071349;28;20509;-70
2023/12/16 03:08:34;;;;;;;4.37;3.77;;;5.60;99.90;;;;;;5071456;28;20215;-71
2023/12/16 03:11:01;;;;;;;4.67;4.00;;;5.60;99.90;;;;;;5071262;28;20674;-72
2023/12/16 03:13:27;;;;;;;7.35;4.30;;;5.50;99.90;;;;;;5069640;28;20508;-72
2023/12/16 03:15:52;;;;;;;5.60;4.03;;;5.50;99.90;;;;;;5071521;28;20277;-71
2023/12/16 03:18:18;;;;;;;4.70;3.70;;;5.50;99.90;;;;;;5071068;28;20198;-72
2023/12/16 03:20:43;;;;;;;4.00;3.50;;;5.50;99.90;;;;;;5069619;28;20190;-71
2023/12/16 03:23:09;;;;;;;4.87;3.77;;;5.50;99.90;;;;;;5071048;28;20733;-72
2023/12/16 03:25:37;;;;;;;3.90;3.40;;;5.50;99.90;;;;;;5053035;28;20187;-71
2023/12/16 03:28:03;;;;;;;5.67;4.20;;;5.50;99.90;;;;;;5070754;28;20207;-72
2023/12/16 03:30:29;;;;;;;5.77;5.10;;;5.40;99.90;;;;;;5070855;28;20479;-71
2023/12/16 03:32:54;;;;;;;7.80;5.90;;;5.40;99.90;;;;;;5070708;28;20421;-72
2023/12/16 03:35:21;;;;;;;9.20;4.50;;;5.30;99.90;;;;;;5069541;28;20262;-71
2023/12/16 03:37:47;;;;;;;6.30;5.10;;;5.40;99.90;;;;;;5069212;28;20787;-71
2023/12/16 03:40:13;;;;;;;6.97;5.43;;;5.40;99.90;;;;;;5069340;28;20515;-73
2023/12/16 03:42:39;;;;;;;14.13;5.03;;;5.40;99.90;;;;;;5069411;28;20188;-72
2023/12/16 03:45:05;;;;;;;5.53;4.93;;;5.40;99.90;;;;;;5070339;28;20417;-72
2023/12/16 03:47:31;;;;;;;7.40;5.40;;;5.40;99.90;;;;;;5069808;28;20219;-71
2023/12/16 03:49:57;;;;;;;5.63;4.90;;;5.40;99.90;;;;;;5069811;28;20421;-72
2023/12/16 03:52:22;;;;;;;9.40;5.40;;;5.40;99.90;;;;;;5069776;28;20495;-72
2023/12/16 03:54:48;;;;;;;6.10;5.03;;;5.40;99.90;;;;;;5069640;28;20853;-72
2023/12/16 03:57:13;;;;;;;7.27;4.57;;;5.40;99.90;;;;;;5068322;28;20202;-72
2023/12/16 03:59:39;;;;;;;9.87;4.40;;;5.40;99.90;;;;;;5068576;28;20187;-72
2023/12/16 04:02:05;;;;;;;7.20;4.50;;;5.40;99.90;;;;;;5035272;28;20195;-72
2023/12/16 04:04:32;;;;;;;6.10;4.87;;;5.40;99.90;;;;;;5069873;28;20258;-71
2023/12/16 04:07:00;;;;;;;7.30;5.20;;;5.40;99.90;;;;;;5069834;28;20257;-72
2023/12/16 04:09:26;;;;;;;9.13;4.57;;;5.40;99.90;;;;;;5068666;28;20425;-73
2023/12/16 04:11:52;;;;;;;6.33;4.30;;;5.40;99.90;;;;;;5069995;28;20918;-72
2023/12/16 04:14:18;;;;;;;7.40;4.10;;;5.40;99.90;;;;;;5070045;28;20424;-72
2023/12/16 04:16:44;;;;;;;6.10;4.43;;;5.30;99.90;;;;;;5068540;28;20439;-72
2023/12/16 04:19:12;;;;;;;6.00;4.20;;;5.30;99.90;;;;;;5070020;28;20657;-71
2023/12/16 04:21:38;;;;;;;6.63;4.90;;;5.40;99.90;;;;;;5069932;28;20439;-72
2023/12/16 04:24:03;;;;;;;6.37;4.80;;;5.40;99.90;;;;;;5070000;28;20509;-72
2023/12/16 04:26:29;;;;;;;8.07;5.90;;;5.40;99.90;;;;;;5069698;28;20449;-72
2023/12/16 04:28:54;;;;;;;5.90;4.80;;;5.40;99.90;;;;;;5069744;28;20179;-73
2023/12/16 04:31:20;;;;;;;6.33;5.27;;;5.40;99.90;;;;;;5068376;28;20203;-73
2023/12/16 04:33:46;;;;;;;4.87;4.37;;;5.40;99.90;;;;;;5069203;28;20611;-72
2023/12/16 04:36:16;;;;;;;8.03;5.20;;;5.40;99.90;;;;;;5067744;28;20210;-73
2023/12/16 04:38:42;;;;;;;7.23;5.43;;;5.40;99.90;;;;;;5069754;28;20933;-72
2023/12/16 04:41:11;;;;;;;8.17;5.60;;;5.40;99.90;;;;;;5067917;28;20988;-72
2023/12/16 04:43:37;;;;;;;7.33;5.60;;;5.30;99.90;;;;;;5069516;28;21243;-72
2023/12/16 04:46:03;;;;;;;7.60;4.60;;;5.30;99.90;;;;;;5068659;28;20503;-71
2023/12/16 04:48:29;;;;;;;7.90;5.57;;;5.20;99.90;;;;;;5067841;28;20219;-71
2023/12/16 04:50:54;;;;;;;6.80;5.53;;;5.10;99.90;;;;;;5069808;28;20440;-72
2023/12/16 04:53:20;;;;;;;8.77;6.53;;;5.00;99.90;;;;;;5069386;28;20185;-72
2023/12/16 04:55:45;;;;;;;9.13;6.53;;;5.10;99.90;;;;;;5067731;28;20616;-71
2023/12/16 04:58:11;;;;;;;7.40;5.57;;;5.10;99.90;;;;;;5034082;28;20276;-72
2023/12/16 05:00:36;;;;;;;8.43;5.90;;;5.10;99.90;;;;;;5067219;28;20187;-72
2023/12/16 05:03:03;;;;;;;8.60;5.90;;;5.10;99.90;;;;;;5068602;28;20190;-72
2023/12/16 05:05:29;;;;;;;6.65;5.18;;;5.10;99.90;;;;;;5068589;28;20556;-72
2023/12/16 05:07:54;;;;;;;7.63;5.90;;;5.10;99.90;;;;;;5068304;28;20232;-71
2023/12/16 05:10:20;;;;;;;7.13;5.53;;;5.10;99.90;;;;;;5067213;28;20178;-72
2023/12/16 05:12:45;;;;;;;8.33;5.00;;;5.20;99.90;;;;;;5033634;28;20664;-72
2023/12/16 05:15:11;;;;;;;6.53;5.07;;;5.20;99.90;;;;;;5068399;28;20188;-72
2023/12/16 05:17:37;;;;;;;6.87;5.47;;;5.10;99.90;;;;;;5068233;28;20283;-72
2023/12/16 05:20:03;;;;;;;9.77;5.40;;;5.20;99.90;;;;;;5068428;28;20190;-72
2023/12/16 05:22:33;;;;;;;5.87;5.13;;;5.20;99.90;;;;;;5068396;28;20197;-72
2023/12/16 05:25:01;;;;;;;8.20;6.30;;;5.20;99.90;;;;;;5068638;28;20864;-72
2023/12/16 05:27:27;;;;;;;7.10;5.80;;;5.30;99.90;;;;;;5068010;28;20496;-72
2023/12/16 05:29:53;;;;;;;7.33;5.70;;;5.30;99.90;;;;;;5068713;28;20933;-72
2023/12/16 05:32:18;;;;;;;9.60;7.43;;;5.30;99.90;;;;;;5068021;28;20415;-72
2023/12/16 05:34:44;;;;;;;12.77;8.00;;;5.30;99.90;;;;;;5068216;28;20183;-71
2023/12/16 05:37:10;;;;;;;22.27;12.00;;;5.30;99.90;;;;;;5066586;28;20727;-72
2023/12/16 05:39:35;;;;;;;19.60;11.13;;;5.30;99.90;;;;;;5068235;28;20188;-71
2023/12/16 05:42:01;;;;;;;16.00;10.53;;;5.20;99.90;;;;;;5068162;28;20211;-71
2023/12/16 05:44:26;;;;;;;17.03;10.13;;;5.20;99.90;;;;;;5068180;28;20281;-72
2023/12/16 05:46:52;;;;;;;11.23;7.20;;;5.10;99.90;;;;;;5066324;28;20221;-72
2023/12/16 05:49:18;;;;;;;9.13;6.00;;;5.10;99.90;;;;;;5067724;28;20179;-72
2023/12/16 05:51:43;;;;;;;6.67;5.23;;;5.00;99.90;;;;;;5067816;28;20660;-72
2023/12/16 05:54:09;;;;;;;9.07;6.33;;;5.00;99.90;;;;;;5049418;28;20203;-72
2023/12/16 05:56:34;;;;;;;8.47;6.13;;;5.00;99.90;;;;;;5066198;28;20349;-72
2023/12/16 05:59:00;;;;;;;7.97;6.50;;;5.00;99.90;;;;;;5071191;28;20192;-72
2023/12/16 06:01:26;;;;;;;6.47;5.80;;;5.00;99.90;;;;;;5071430;28;20190;-72
2023/12/16 06:03:52;;;;;;;10.07;6.20;;;5.00;99.90;;;;;;5070031;28;20229;-72
2023/12/16 06:06:18;;;;;;;12.20;7.03;;;5.00;99.90;;;;;;5071497;28;20178;-72
2023/12/16 06:08:44;;;;;;;6.47;5.43;;;5.00;99.90;;;;;;5071157;28;20464;-72
2023/12/16 06:11:13;;;;;;;8.90;6.00;;;5.00;99.90;;;;;;5071234;28;20445;-72
2023/12/16 06:13:39;;;;;;;9.90;6.77;;;5.00;99.90;;;;;;5071878;28;20518;-73
2023/12/16 06:16:07;;;;;;;7.73;6.00;;;5.00;99.90;;;;;;5071300;28;20439;-72
2023/12/16 06:18:34;;;;;;;7.50;6.20;;;5.00;99.90;;;;;;5071236;28;20441;-72
2023/12/16 06:20:59;;;;;;;13.30;6.20;;;5.00;99.90;;;;;;5069959;28;20195;-72
2023/12/16 06:23:26;;;;;;;10.93;6.80;;;5.10;99.90;;;;;;5071117;28;20185;-73
2023/12/16 06:25:52;;;;;;;10.02;6.20;;;5.00;99.90;;;;;;5071413;28;20187;-71
2023/12/16 06:28:18;;;;;;;7.60;5.77;;;5.00;99.90;;;;;;5071130;28;20278;-71
2023/12/16 06:30:44;;;;;;;8.17;5.00;;;5.00;99.90;;;;;;5069436;28;20309;-72
2023/12/16 06:33:09;;;;;;;6.88;5.38;;;4.90;99.90;;;;;;5071033;28;20201;-73
2023/12/16 06:35:35;;;;;;;8.20;4.80;;;4.80;99.90;;;;;;5071618;28;20179;-72
2023/12/16 06:38:01;;;;;;;6.20;4.93;;;4.70;99.90;;;;;;5071050;28;20199;-72
2023/12/16 06:40:31;;;;;;;8.97;5.40;;;4.70;99.90;;;;;;5071030;28;20424;-72
2023/12/16 06:42:57;;;;;;;9.50;4.97;;;4.60;99.90;;;;;;5069623;28;20637;-73
2023/12/16 06:45:22;;;;;;;6.53;5.33;;;4.50;99.90;;;;;;5071133;28;20431;-72
2023/12/16 06:47:48;;;;;;;6.63;4.93;;;4.60;99.90;;;;;;5069228;28;20479;-72
2023/12/16 06:50:14;;;;;;;8.47;5.97;;;4.60;99.90;;;;;;5069314;28;20311;-71
2023/12/16 06:52:40;;;;;;;5.97;5.00;;;4.70;99.90;;;;;;5069393;28;20187;-71
2023/12/16 06:55:06;;;;;;;10.73;5.90;;;4.80;99.90;;;;;;5070559;28;20433;-71
2023/12/16 06:57:32;;;;;;;6.97;5.80;;;4.80;99.90;;;;;;5068714;28;20211;-73
2023/12/16 06:59:58;;;;;;;8.07;5.47;;;4.80;99.90;;;;;;5070351;28;20532;-71
2023/12/16 07:02:25;;;;;;;8.80;7.00;;;4.80;99.90;;;;;;5068971;28;21109;-71
2023/12/16 07:04:51;;;;;;;9.52;6.45;;;4.90;99.90;;;;;;5070600;28;20736;-71
2023/12/16 07:07:16;;;;;;;8.00;5.77;;;4.90;99.90;;;;;;5068909;28;20219;-71
2023/12/16 07:09:42;;;;;;;10.90;7.10;;;4.80;99.90;;;;;;5070221;28;20180;-72
2023/12/16 07:12:08;;;;;;;9.00;6.03;;;4.90;99.90;;;;;;5068757;28;20184;-71
2023/12/16 07:14:34;;;;;;;11.73;6.00;;;4.90;99.90;;;;;;5070348;28;20187;-72
2023/12/16 07:17:00;;;;;;;15.10;7.17;;;4.90;99.90;;;;;;5070139;28;20234;-72
2023/12/16 07:19:27;;;;;;;11.40;7.07;;;5.00;99.90;;;;;;5070395;28;20528;-72
2023/12/16 07:21:53;;;;;;;10.10;5.97;;;4.90;99.90;;;;;;5070272;28;20974;-72
2023/12/16 07:24:19;;;;;;;10.50;6.70;;;4.90;99.90;;;;;;5069054;28;20428;-72
2023/12/16 07:26:44;;;;;;;9.83;5.63;;;4.90;99.90;;;;;;5070205;28;20475;-72
2023/12/16 07:29:10;;;;;;;9.10;6.80;;;4.80;99.90;;;;;;5070208;28;20187;-72
2023/12/16 07:31:36;;;;;;;7.17;5.43;;;4.80;99.90;;;;;;5069946;28;20301;-72
2023/12/16 07:34:01;;;;;;;6.30;5.13;;;4.80;99.90;;;;;;5068596;28;20190;-72
2023/12/16 07:36:27;;;;;;;6.10;5.10;;;4.80;99.90;;;;;;5051489;28;20185;-71
2023/12/16 07:38:55;;;;;;;6.80;5.43;;;4.90;99.90;;;;;;5069828;28;20190;-72
2023/12/16 07:41:21;;;;;;;8.80;6.40;;;4.90;99.90;;;;;;5069626;28;20186;-72
2023/12/16 07:43:47;;;;;;;7.17;6.03;;;5.00;99.90;;;;;;5069556;28;20918;-72
2023/12/16 07:46:12;;;;;;;8.90;6.37;;;5.00;99.90;;;;;;5068133;28;20453;-72
2023/12/16 07:48:38;;;;;;;9.50;7.03;;;4.90;99.90;;;;;;5067724;28;20218;-73
2023/12/16 07:51:04;;;;;;;10.00;7.70;;;4.90;99.90;;;;;;5067970;28;20568;-72
2023/12/16 07:53:29;;;;;;;10.50;8.30;;;4.90;99.90;;;;;;5068224;28;20182;-71
2023/12/16 07:55:56;;;;;;;9.33;6.97;;;4.90;99.90;;;;;;5069349;28;20725;-73
2023/12/16 07:58:21;;;;;;;16.90;11.83;;;4.90;99.90;;;;;;5067781;28;20299;-72
2023/12/16 08:00:48;;;;;;;13.47;9.37;;;4.90;99.90;;;;;;5069335;28;20520;-72
2023/12/16 08:03:13;;;;;;;9.10;7.13;;;4.90;99.90;;;;;;5067925;28;20632;-73
2023/12/16 08:05:42;;;;;;;10.37;7.37;;;4.90;99.90;;;;;;5069564;28;20515;-72
2023/12/16 08:08:08;;;;;;;8.97;6.87;;;5.00;99.90;;;;;;5067723;28;20658;-72
2023/12/16 08:10:34;;;;;;;9.40;7.20;;;5.00;99.90;;;;;;5067675;28;20524;-73
2023/12/16 08:12:59;;;;;;;10.20;6.90;;;5.00;99.90;;;;;;5067850;28;20242;-73
2023/12/16 08:15:25;;;;;;;15.80;8.30;;;5.10;99.90;;;;;;5069073;28;20416;-72
2023/12/16 08:17:50;;;;;;;13.60;10.30;;;5.10;99.90;;;;;;5069208;28;20207;-73
2023/12/16 08:20:16;;;;;;;15.33;8.97;;;5.10;99.90;;;;;;5066745;28;20274;-73
2023/12/16 08:22:42;;;;;;;13.23;8.97;;;5.10;99.90;;;;;;5069262;28;20657;-73
2023/12/16 08:25:08;;;;;;;16.10;11.57;;;5.20;99.90;;;;;;5068953;28;20183;-72
2023/12/16 08:27:33;;;;;;;13.75;9.80;;;5.20;99.90;;;;;;5068792;28;20213;-71
2023/12/16 08:29:59;;;;;;;11.80;9.30;;;5.20;99.90;;;;;;5067287;28;20683;-72
2023/12/16 08:32:25;;;;;;;17.70;8.90;;;5.30;99.90;;;;;;5067516;28;20187;-71
2023/12/16 08:34:50;;;;;;;9.50;7.93;;;5.30;99.90;;;;;;5067361;28;20237;-72
2023/12/16 08:37:16;;;;;;;12.03;7.53;;;5.30;99.90;;;;;;5068050;28;21029;-71
2023/12/16 08:39:41;;;;;;;10.20;6.50;;;5.30;99.90;;;;;;5070756;28;20184;-73
2023/12/16 08:42:07;;;;;;;6.97;6.10;;;5.30;99.90;;;;;;5075531;28;20186;-72
2023/12/16 08:44:34;;;;;;;8.07;6.40;;;5.30;99.90;;;;;;5071370;28;20236;-72
2023/12/16 08:47:00;;;;;;;7.90;5.90;;;5.30;99.90;;;;;;5069054;28;20727;-71
2023/12/16 08:49:25;;;;;;;9.07;7.47;;;5.20;99.90;;;;;;5067469;28;20424;-72
2023/12/16 08:51:52;;;;;;;10.00;7.93;;;5.20;99.90;;;;;;5067596;28;20482;-73
2023/12/16 08:54:17;;;;;;;15.63;6.80;;;5.20;99.90;;;;;;5067266;28;20609;-73
2023/12/16 08:56:43;;;;;;;10.47;6.90;;;5.20;99.90;;;;;;5068692;28;20440;-73
2023/12/16 08:59:09;;;;;;;7.67;6.87;;;5.20;99.90;;;;;;5067853;28;20641;-72
2023/12/16 09:01:35;;;;;;;11.30;7.30;;;5.20;99.90;;;;;;5066050;28;20423;-73
2023/12/16 09:04:00;;;;;;;7.47;5.87;;;5.20;99.90;;;;;;5065918;28;20905;-73
2023/12/16 09:06:26;;;;;;;10.87;6.33;;;5.30;99.90;;;;;;5048886;28;20179;-73
2023/12/16 09:08:52;;;;;;;12.07;7.83;;;5.30;99.90;;;;;;5067029;28;20495;-74
2023/12/16 09:11:17;;;;;;;9.13;6.80;;;5.30;99.90;;;;;;5067326;28;20865;-72
2023/12/16 09:13:44;;;;;;;8.87;6.60;;;5.40;99.90;;;;;;5065809;28;20186;-72
2023/12/16 09:16:09;;;;;;;8.57;6.80;;;5.40;99.90;;;;;;5049188;28;20249;-72
2023/12/16 09:18:38;;;;;;;9.10;6.70;;;5.40;99.90;;;;;;5067017;28;20185;-72
2023/12/16 09:21:03;;;;;;;7.25;6.28;;;5.50;99.90;;;;;;5048752;28;20240;-72
2023/12/16 09:23:29;;;;;;;6.50;5.83;;;5.50;99.90;;;;;;5065973;28;20603;-73
2023/12/16 09:25:55;;;;;;;11.53;6.17;;;5.60;99.90;;;;;;5066081;28;20269;-73
2023/12/16 09:28:20;;;;;;;7.40;6.27;;;5.60;99.90;;;;;;5066934;28;20297;-73
2023/12/16 09:30:46;;;;;;;8.50;6.87;;;5.60;99.90;;;;;;5066986;28;20182;-72
2023/12/16 09:33:11;;;;;;;7.60;6.60;;;5.70;99.90;;;;;;5071057;28;20175;-73
2023/12/16 09:35:37;;;;;;;9.80;7.30;;;5.70;99.90;;;;;;5071189;28;20179;-73
2023/12/16 09:38:03;;;;;;;7.90;6.37;;;5.60;99.90;;;;;;5070778;28;20263;-73
2023/12/16 09:40:29;;;;;;;9.80;7.03;;;5.70;99.90;;;;;;5069782;28;20274;-73
2023/12/16 09:43:04;;;;;;;10.00;8.47;;;5.80;99.90;;;;;;5070767;28;20440;-73
2023/12/16 09:45:30;;;;;;;13.52;9.43;;;5.80;99.90;;;;;;5070586;28;20445;-72
2023/12/16 09:47:56;;;;;;;14.33;9.53;;;5.90;99.90;;;;;;5069327;28;20791;-72
2023/12/16 09:50:21;;;;;;;13.17;8.60;;;6.00;99.90;;;;;;5070505;28;20185;-72
2023/12/16 09:52:47;;;;;;;11.87;8.23;;;6.00;99.90;;;;;;5052399;28;20271;-72
2023/12/16 09:55:13;;;;;;;9.30;7.00;;;6.10;99.90;;;;;;5068863;28;20195;-72
2023/12/16 09:57:41;;;;;;;7.67;6.17;;;6.10;99.90;;;;;;5069239;28;20218;-73
2023/12/16 10:00:07;;;;;;;7.87;5.63;;;6.20;99.90;;;;;;5069326;28;20413;-73
2023/12/16 10:02:33;;;;;;;5.97;4.80;;;6.30;99.90;;;;;;5069604;28;20445;-73
2023/12/16 10:05:00;;;;;;;7.47;5.20;;;6.30;99.90;;;;;;5069538;28;21150;-73
2023/12/16 10:07:25;;;;;;;5.63;4.90;;;6.30;99.90;;;;;;5069012;28;20249;-72
2023/12/16 10:09:52;;;;;;;4.90;4.37;;;6.30;99.90;;;;;;5070753;28;20437;-73
2023/12/16 10:12:21;;;;;;;8.67;6.60;;;6.40;99.90;;;;;;5070754;28;20178;-73
2023/12/16 10:14:49;;;;;;;8.80;6.37;;;6.40;99.90;;;;;;5070521;28;20445;-72
2023/12/16 10:17:19;;;;;;;10.33;7.10;;;6.50;99.90;;;;;;5070502;28;20555;-73
2023/12/16 10:19:46;;;;;;;8.97;6.47;;;6.60;99.90;;;;;;5070276;28;20440;-73
2023/12/16 10:22:20;;;;;;;10.00;6.17;;;6.70;99.90;;;;;;5070481;28;20440;-73
2023/12/16 10:24:46;;;;;;;7.93;5.30;;;6.70;99.90;;;;;;5070790;28;20458;-73
2023/12/16 10:27:13;;;;;;;6.67;4.53;;;6.70;99.90;;;;;;5070643;28;20557;-73
2023/12/16 10:29:42;;;;;;;3.60;3.20;;;6.80;99.90;;;;;;5069005;28;20232;-72
2023/12/16 10:32:11;;;;;;;3.40;3.10;;;6.90;99.90;;;;;;5070774;28;20911;-72
2023/12/16 10:34:37;;;;;;;2.97;2.20;;;7.00;99.90;;;;;;5069297;28;20991;-72
2023/12/16 10:37:07;;;;;;;2.73;2.40;;;7.10;99.90;;;;;;5070858;28;20445;-73
2023/12/16 10:39:33;;;;;;;3.00;2.80;;;7.30;99.90;;;;;;5070675;28;20415;-73
2023/12/16 10:41:59;;;;;;;3.33;2.70;;;7.40;99.90;;;;;;5052636;28;20413;-72
2023/12/16 10:44:24;;;;;;;2.93;2.63;;;7.60;99.90;;;;;;5067516;28;20524;-73
2023/12/16 10:46:55;;;;;;;2.70;2.07;;;7.80;99.90;;;;;;5069901;28;21150;-74
2023/12/16 10:49:30;;;;;;;1.80;1.70;;;8.30;99.90;;;;;;5068326;28;20197;-74
2023/12/16 10:52:05;;;;;;;6.00;3.70;;;8.80;99.90;;;;;;5069387;28;20417;-73
2023/12/16 10:54:39;;;;;;;1.77;1.67;;;9.40;99.90;;;;;;5069440;28;20471;-72
2023/12/16 10:57:12;;;;;;;2.20;1.90;;;9.80;99.90;;;;;;5051273;28;20447;-73
2023/12/16 10:59:43;;;;;;;4.60;2.30;;;10.10;99.90;;;;;;5069495;28;20413;-73
2023/12/16 11:02:22;;;;;;;3.10;2.37;;;9.80;99.90;;;;;;5067942;28;20887;-73
2023/12/16 11:04:56;;;;;;;2.60;2.40;;;9.70;99.90;;;;;;5069737;28;20425;-72
2023/12/16 11:07:25;;;;;;;4.43;2.30;;;9.70;99.90;;;;;;5067867;28;20461;-72
2023/12/16 11:09:51;;;;;;;2.80;2.60;;;9.40;99.90;;;;;;5069754;28;20421;-72
2023/12/16 11:12:19;;;;;;;2.50;2.30;;;9.40;99.90;;;;;;5069657;28;20455;-73
2023/12/16 11:14:45;;;;;;;2.47;2.27;;;9.30;99.90;;;;;;5051555;28;20420;-73
2023/12/16 11:17:19;;;;;;;2.33;1.80;;;9.90;99.90;;;;;;5069522;28;20445;-73
2023/12/16 11:19:55;;;;;;;2.70;2.10;;;11.90;99.90;;;;;;5069274;28;20436;-74
2023/12/16 11:22:22;;;;;;;2.40;2.20;;;13.60;99.90;;;;;;5069656;28;20409;-72
2023/12/16 11:24:50;;;;;;;2.60;2.40;;;14.80;99.90;;;;;;5069433;28;20414;-73
2023/12/16 11:27:16;;;;;;;2.60;2.40;;;15.40;99.90;;;;;;5068157;28;20529;-74
2023/12/16 11:29:42;;;;;;;2.37;1.93;;;15.90;99.90;;;;;;5069438;28;20424;-74
2023/12/16 11:32:09;;;;;;;2.03;1.63;;;15.70;99.90;;;;;;5069720;28;20429;-74
2023/12/16 11:34:41;;;;;;;4.00;2.00;;;16.10;99.90;;;;;;5069641;28;20477;-74
2023/12/16 11:37:07;;;;;;;1.90;1.80;;;16.20;99.90;;;;;;5069173;28;20899;-74
2023/12/16 11:39:37;;;;;;;2.63;2.43;;;15.20;99.90;;;;;;5068258;28;20448;-74
2023/12/16 11:42:04;;;;;;;3.43;2.90;;;14.30;99.90;;;;;;5069198;28;20270;-73
2023/12/16 11:44:51;;;;;;;3.90;2.30;;;13.00;99.90;;;;;;5067493;28;20843;-73
2023/12/16 11:47:24;;;;;;;2.87;2.57;;;12.30;99.90;;;;;;5066962;28;20478;-72
2023/12/16 11:49:50;;;;;;;2.70;2.20;;;11.90;99.90;;;;;;5066836;28;20420;-73
2023/12/16 11:52:19;;;;;;;3.70;2.90;;;11.50;99.90;;;;;;5068287;28;20421;-73
2023/12/16 11:54:45;;;;;;;10.47;5.83;;;11.00;99.90;;;;;;5068200;28;20942;-73
2023/12/16 11:57:10;;;;;;;4.17;3.30;;;10.70;99.90;;;;;;5066763;28;20454;-74
2023/12/16 11:59:36;;;;;;;2.23;2.03;;;10.40;99.90;;;;;;5068490;28;20421;-73
2023/12/16 12:02:02;;;;;;;4.37;1.93;;;10.20;99.90;;;;;;5050410;28;20219;-73
2023/12/16 12:04:28;;;;;;;3.70;2.13;;;9.90;99.90;;;;;;5067149;28;21000;-73
2023/12/16 12:06:54;;;;;;;2.77;2.57;;;9.70;99.90;;;;;;5067103;28;20439;-73
2023/12/16 12:09:20;;;;;;;2.63;2.43;;;9.50;99.90;;;;;;5068695;28;20243;-73
2023/12/16 12:11:45;;;;;;;3.50;3.13;;;9.30;99.90;;;;;;5067362;28;20420;-73
2023/12/16 12:14:11;;;;;;;3.37;2.77;;;9.20;99.90;;;;;;5050813;28;20180;-73
2023/12/16 12:16:36;;;;;;;4.70;2.77;;;9.00;99.90;;;;;;5068698;28;20225;-72
2023/12/16 12:19:02;;;;;;;4.50;3.20;;;8.80;99.90;;;;;;5066946;28;20653;-72
2023/12/16 12:21:27;;;;;;;4.17;3.80;;;8.80;99.90;;;;;;5068245;28;20187;-72
2023/12/16 12:23:53;;;;;;;4.57;3.93;;;8.50;99.90;;;;;;5066818;28;20210;-73
2023/12/16 12:26:20;;;;;;;7.00;5.13;;;8.30;99.90;;;;;;5067806;28;20740;-71
2023/12/16 12:29:02;;;;;;;7.30;5.90;;;8.20;99.90;;;;;;5050146;28;20725;-71
2023/12/16 12:31:28;;;;;;;5.20;4.40;;;8.10;99.90;;;;;;5068464;28;20425;-71
2023/12/16 12:33:53;;;;;;;5.07;4.43;;;8.00;99.90;;;;;;5068265;28;20425;-74
2023/12/16 12:36:19;;;;;;;6.50;3.60;;;7.90;99.90;;;;;;5067192;28;20934;-72
2023/12/16 12:38:45;;;;;;;8.20;4.87;;;7.90;99.90;;;;;;5068360;28;20202;-73
2023/12/16 12:41:15;;;;;;;6.63;4.50;;;7.70;99.90;;;;;;5066695;28;20196;-72
2023/12/16 12:43:40;;;;;;;5.10;4.10;;;7.80;99.90;;;;;;5068516;28;20421;-73
2023/12/16 12:46:10;;;;;;;8.00;5.83;;;7.80;99.90;;;;;;5068187;28;20740;-71
2023/12/16 12:48:37;;;;;;;6.50;4.83;;;7.80;99.90;;;;;;5068050;28;20222;-73
2023/12/16 12:51:08;;;;;;;8.07;5.30;;;7.70;99.90;;;;;;5068198;28;20424;-72